This is the latest recevied weather packets stored in our database for station/object ON4CCM-13. If no packets are shown the sender has not sent any weather packets the latest 10 day(s).
| Time | Temp. | Humidity | Pressure | Rain* | Wind** | Luminosity | Snow |
|---|---|---|---|---|---|---|---|
| 1777828257 | 16.67° C | 81% | 1013.5 hPa | 0.25 mm | - | - | - |
| 1777827651 | 17.22° C | 80% | 1013.3 hPa | 0 mm | - | - | - |
| 1777826464 | 17.22° C | 79% | 1012.9 hPa | 0 mm | - | - | - |
| 1777823424 | 17.78° C | 79% | 1013 hPa | 0 mm | - | - | - |
| 1777818051 | 17.78° C | 89% | 1013.3 hPa | 0 mm | - | - | - |
| 1777816844 | 17.22° C | 90% | 1013.4 hPa | 0 mm | - | - | - |
| 1777816240 | 17.22° C | 90% | 1013.5 hPa | 0 mm | - | - | - |
| 1777812620 | 16.67° C | 91% | 1013.7 hPa | 0.25 mm | - | - | - |
| 1777810264 | 16.67° C | 92% | 1013.9 hPa | 1.02 mm | - | - | - |
| 1777808453 | 16.67° C | 92% | 1013.9 hPa | 1.27 mm | - | - | - |
| 1777802497 | 16.11° C | 89% | 1014.1 hPa | 1.02 mm | - | - | - |
| 1777801891 | 16.11° C | 89% | 1014.1 hPa | 1.02 mm | - | - | - |
| 1777801287 | 16.11° C | 87% | 1014.1 hPa | 0.51 mm | - | - | - |
| 1777798852 | 17.78° C | 88% | 1014 hPa | 0 mm | - | - | - |
| 1777797041 | 17.22° C | 99% | 1013.8 hPa | 0 mm | - | - | - |
| 1777795834 | 16.67° C | 99% | 1013.7 hPa | 0 mm | - | - | - |
| 1777791668 | 15.56° C | 99% | 1013.3 hPa | 0 mm | - | - | - |
| 1777789857 | 15° C | 99% | 1013.2 hPa | 0 mm | - | - | - |
| 1777785069 | 12.22° C | 99% | 1013.3 hPa | 0 mm | - | - | - |
| 1777784444 | 12.22° C | 99% | 1013.4 hPa | 0 mm | - | - | - |
| 1777782069 | 12.22° C | 98% | 1013.8 hPa | 0 mm | - | - | - |
| 1777766432 | 14.44° C | 92% | 1015.3 hPa | 0 mm | - | - | - |
| 1777761058 | 14.44° C | 87% | 1015.9 hPa | 0 mm | - | - | - |
| 1777756834 | 15° C | 78% | 1015.9 hPa | 2.29 mm | - | - | - |
| 1777748440 | 20° C | 46% | 1016 hPa | 0 mm | - | - | - |
* Rain latest hour (hover to see other rain measurements)
** Current wind speed in m/s (hover to see current wind gust speed)